Littlesburg, West Virginia
Current Conditions -  °F | °C
As of 9:07 AM on Thursday 27 Nov 2014 (Local Time) from KBLF Reporting Station
Overcast Overcast  
Wind Chill: 28°   Ceiling: 1200
Heat Index: 33°   Visibility: 8mi
Dew Point: 29°   Wind: 6mph
Humidity: 85%   Direction: 300°WNW
Pressure: 30.02"   Gusts: NA
Location:  37.2994°N, 81.226°W
Report Text: KBLF 271407Z AUTO 30005KT 8SM FEW007 BKN012 OVC037 01/M02 A3002 RMK AO2 SNE06 P0000 T00061017 $
Loading
Personal Weather Stations






























Interactive Weather Map New forecast layout! Learn more

10-Day Weather Forecast

Advertisements
Track Severe Weather on mobile